sensor_id;sensor_type;location;lat;lon;timestamp;temperature;humidity
14775;DHT22;7479;47.042;15.160;2023-02-27T07:13:53;-0.40;99.90
14775;DHT22;7479;47.042;15.160;2023-02-27T07:25:50;0.10;99.90
14775;DHT22;7479;47.042;15.160;2023-02-27T07:30:44;0.20;99.90
14775;DHT22;7479;47.042;15.160;2023-02-27T07:35:38;0.40;99.90
14775;DHT22;7479;47.042;15.160;2023-02-27T07:40:32;0.60;99.90
14775;DHT22;7479;47.042;15.160;2023-02-27T07:45:27;0.70;99.90
14775;DHT22;7479;47.042;15.160;2023-02-27T07:50:21;0.80;99.90
14775;DHT22;7479;47.042;15.160;2023-02-27T07:55:15;0.90;99.90
14775;DHT22;7479;47.042;15.160;2023-02-27T08:00:09;1.10;99.90
14775;DHT22;7479;47.042;15.160;2023-02-27T08:05:05;1.20;99.90
14775;DHT22;7479;47.042;15.160;2023-02-27T08:09:59;1.40;99.90
14775;DHT22;7479;47.042;15.160;2023-02-27T08:14:53;1.50;99.90
14775;DHT22;7479;47.042;15.160;2023-02-27T08:19:47;1.70;99.90
14775;DHT22;7479;47.042;15.160;2023-02-27T08:24:42;1.70;99.90
14775;DHT22;7479;47.042;15.160;2023-02-27T08:29:36;1.80;99.90
14775;DHT22;7479;47.042;15.160;2023-02-27T08:34:29;1.90;99.90
14775;DHT22;7479;47.042;15.160;2023-02-27T08:39:23;2.00;99.90
14775;DHT22;7479;47.042;15.160;2023-02-27T08:44:18;2.30;99.90
14775;DHT22;7479;47.042;15.160;2023-02-27T08:49:12;2.60;99.90
14775;DHT22;7479;47.042;15.160;2023-02-27T08:54:06;2.90;99.90
14775;DHT22;7479;47.042;15.160;2023-02-27T08:58:59;3.10;99.90
14775;DHT22;7479;47.042;15.160;2023-02-27T09:03:55;3.10;99.50
14775;DHT22;7479;47.042;15.160;2023-02-27T09:08:49;3.30;97.70
14775;DHT22;7479;47.042;15.160;2023-02-27T09:13:43;3.50;97.10
14775;DHT22;7479;47.042;15.160;2023-02-27T09:18:37;3.50;95.60
14775;DHT22;7479;47.042;15.160;2023-02-27T09:23:32;3.70;95.70
14775;DHT22;7479;47.042;15.160;2023-02-27T09:28:25;3.80;92.80
14775;DHT22;7479;47.042;15.160;2023-02-27T09:33:19;4.20;92.10
14775;DHT22;7479;47.042;15.160;2023-02-27T09:38:13;4.50;91.00
14775;DHT22;7479;47.042;15.160;2023-02-27T09:43:14;4.70;87.80
14775;DHT22;7479;47.042;15.160;2023-02-27T09:48:18;4.70;87.60
14775;DHT22;7479;47.042;15.160;2023-02-27T09:53:15;4.70;85.00
14775;DHT22;7479;47.042;15.160;2023-02-27T09:58:28;4.70;83.90
14775;DHT22;7479;47.042;15.160;2023-02-27T10:03:39;4.60;83.80
14775;DHT22;7479;47.042;15.160;2023-02-27T10:08:41;4.60;82.90
14775;DHT22;7479;47.042;15.160;2023-02-27T10:13:48;4.60;82.80
14775;DHT22;7479;47.042;15.160;2023-02-27T10:18:50;4.60;84.10
14775;DHT22;7479;47.042;15.160;2023-02-27T10:23:50;4.80;88.90
14775;DHT22;7479;47.042;15.160;2023-02-27T10:28:47;4.90;87.60
14775;DHT22;7479;47.042;15.160;2023-02-27T10:33:42;5.10;86.40
14775;DHT22;7479;47.042;15.160;2023-02-27T10:38:41;5.30;88.10
14775;DHT22;7479;47.042;15.160;2023-02-27T10:43:37;5.50;85.40
14775;DHT22;7479;47.042;15.160;2023-02-27T10:48:32;5.30;85.70
14775;DHT22;7479;47.042;15.160;2023-02-27T10:53:27;5.10;86.40
14775;DHT22;7479;47.042;15.160;2023-02-27T10:58:21;5.00;86.70
14775;DHT22;7479;47.042;15.160;2023-02-27T11:03:18;5.00;87.10
14775;DHT22;7479;47.042;15.160;2023-02-27T11:08:22;4.90;85.90
14775;DHT22;7479;47.042;15.160;2023-02-27T11:13:19;4.90;82.80
14775;DHT22;7479;47.042;15.160;2023-02-27T11:18:24;5.00;81.00
14775;DHT22;7479;47.042;15.160;2023-02-27T11:23:22;5.30;83.90
14775;DHT22;7479;47.042;15.160;2023-02-27T11:28:22;5.80;84.70
14775;DHT22;7479;47.042;15.160;2023-02-27T11:33:18;6.40;81.90
14775;DHT22;7479;47.042;15.160;2023-02-27T11:38:16;6.70;81.00
14775;DHT22;7479;47.042;15.160;2023-02-27T11:43:18;7.30;78.30
14775;DHT22;7479;47.042;15.160;2023-02-27T11:48:18;7.20;76.20
14775;DHT22;7479;47.042;15.160;2023-02-27T11:53:24;7.20;83.30
14775;DHT22;7479;47.042;15.160;2023-02-27T11:58:25;8.20;84.80
14775;DHT22;7479;47.042;15.160;2023-02-27T12:03:24;8.20;74.30
14775;DHT22;7479;47.042;15.160;2023-02-27T12:08:29;7.90;75.00
14775;DHT22;7479;47.042;15.160;2023-02-27T12:13:29;7.60;76.50
14775;DHT22;7479;47.042;15.160;2023-02-27T12:18:27;7.60;76.90
14775;DHT22;7479;47.042;15.160;2023-02-27T12:23:26;7.40;75.80
14775;DHT22;7479;47.042;15.160;2023-02-27T12:28:36;6.60;76.50
14775;DHT22;7479;47.042;15.160;2023-02-27T12:33:37;7.50;78.70
14775;DHT22;7479;47.042;15.160;2023-02-27T12:38:31;7.70;75.20
14775;DHT22;7479;47.042;15.160;2023-02-27T12:43:32;8.70;74.40
14775;DHT22;7479;47.042;15.160;2023-02-27T12:48:44;8.20;73.80
14775;DHT22;7479;47.042;15.160;2023-02-27T12:54:01;8.30;75.20
14775;DHT22;7479;47.042;15.160;2023-02-27T12:59:02;8.50;71.90
14775;DHT22;7479;47.042;15.160;2023-02-27T13:04:01;8.30;70.30
14775;DHT22;7479;47.042;15.160;2023-02-27T13:09:06;8.00;72.20
14775;DHT22;7479;47.042;15.160;2023-02-27T13:14:11;7.60;73.20
14775;DHT22;7479;47.042;15.160;2023-02-27T13:19:12;7.90;73.60
14775;DHT22;7479;47.042;15.160;2023-02-27T13:24:22;7.90;73.00
14775;DHT22;7479;47.042;15.160;2023-02-27T13:29:21;7.10;74.00
14775;DHT22;7479;47.042;15.160;2023-02-27T13:34:19;7.10;76.50
14775;DHT22;7479;47.042;15.160;2023-02-27T13:39:39;9.70;71.30
14775;DHT22;7479;47.042;15.160;2023-02-27T13:44:40;11.40;64.20
14775;DHT22;7479;47.042;15.160;2023-02-27T13:49:41;12.30;60.10
14775;DHT22;7479;47.042;15.160;2023-02-27T13:54:39;13.30;57.50
14775;DHT22;7479;47.042;15.160;2023-02-27T13:59:35;13.40;54.40
14775;DHT22;7479;47.042;15.160;2023-02-27T14:04:34;13.50;52.30
14775;DHT22;7479;47.042;15.160;2023-02-27T14:09:33;13.90;52.40
14775;DHT22;7479;47.042;15.160;2023-02-27T14:14:41;15.00;49.80
14775;DHT22;7479;47.042;15.160;2023-02-27T14:19:53;15.40;48.80
14775;DHT22;7479;47.042;15.160;2023-02-27T14:24:54;14.30;47.60
14775;DHT22;7479;47.042;15.160;2023-02-27T14:29:56;12.40;50.90
14775;DHT22;7479;47.042;15.160;2023-02-27T14:34:54;12.50;51.90
14775;DHT22;7479;47.042;15.160;2023-02-27T14:39:49;12.70;50.80
14775;DHT22;7479;47.042;15.160;2023-02-27T14:44:46;10.90;53.60
14775;DHT22;7479;47.042;15.160;2023-02-27T14:49:40;10.20;54.00
14775;DHT22;7479;47.042;15.160;2023-02-27T14:54:35;9.10;57.20
14775;DHT22;7479;47.042;15.160;2023-02-27T14:59:30;7.80;60.50
14775;DHT22;7479;47.042;15.160;2023-02-27T15:04:27;6.90;62.30
14775;DHT22;7479;47.042;15.160;2023-02-27T15:09:24;6.60;62.70
14775;DHT22;7479;47.042;15.160;2023-02-27T15:14:28;6.70;63.30
14775;DHT22;7479;47.042;15.160;2023-02-27T15:19:23;7.20;62.30
14775;DHT22;7479;47.042;15.160;2023-02-27T15:24:26;6.30;63.80
14775;DHT22;7479;47.042;15.160;2023-02-27T15:29:31;5.30;64.50
14775;DHT22;7479;47.042;15.160;2023-02-27T15:34:26;4.80;66.90
14775;DHT22;7479;47.042;15.160;2023-02-27T15:39:22;4.70;68.60
14775;DHT22;7479;47.042;15.160;2023-02-27T15:44:18;4.60;69.30
14775;DHT22;7479;47.042;15.160;2023-02-27T15:49:16;4.70;71.30
14775;DHT22;7479;47.042;15.160;2023-02-27T15:54:12;4.60;70.50
14775;DHT22;7479;47.042;15.160;2023-02-27T15:59:06;4.70;70.70
14775;DHT22;7479;47.042;15.160;2023-02-27T16:04:05;4.50;72.60
14775;DHT22;7479;47.042;15.160;2023-02-27T16:09:03;4.40;72.10
14775;DHT22;7479;47.042;15.160;2023-02-27T16:13:58;4.30;73.10
14775;DHT22;7479;47.042;15.160;2023-02-27T16:18:53;4.20;72.70
14775;DHT22;7479;47.042;15.160;2023-02-27T16:23:48;4.10;73.70
14775;DHT22;7479;47.042;15.160;2023-02-27T16:28:48;4.00;74.30
14775;DHT22;7479;47.042;15.160;2023-02-27T16:33:43;4.00;75.60
14775;DHT22;7479;47.042;15.160;2023-02-27T16:38:37;3.90;74.90
14775;DHT22;7479;47.042;15.160;2023-02-27T16:43:31;3.80;75.90
14775;DHT22;7479;47.042;15.160;2023-02-27T16:48:26;3.80;76.30
14775;DHT22;7479;47.042;15.160;2023-02-27T16:53:19;3.60;76.60
14775;DHT22;7479;47.042;15.160;2023-02-27T16:58:14;3.60;78.30
14775;DHT22;7479;47.042;15.160;2023-02-27T17:03:08;3.50;79.30
14775;DHT22;7479;47.042;15.160;2023-02-27T17:08:03;3.40;79.10
14775;DHT22;7479;47.042;15.160;2023-02-27T17:12:57;3.30;81.00
14775;DHT22;7479;47.042;15.160;2023-02-27T17:17:51;3.30;81.30
14775;DHT22;7479;47.042;15.160;2023-02-27T17:22:45;3.30;81.00
14775;DHT22;7479;47.042;15.160;2023-02-27T17:27:42;3.20;79.70
14775;DHT22;7479;47.042;15.160;2023-02-27T17:32:37;3.10;79.00
